Time;durP1;ratioP1;P1;durP2;ratioP2;P2;SDS_P1;SDS_P2;PMS_P1;PMS_P2;Temp;Humidity;BMP_temperature;BMP_pressure;BME280_temperature;BME280_humidity;BME280_pressure;Samples;Min_cycle;Max_cycle;Signal;HPM_P1;HPM_P2
2023/06/07 00:01:52;;;;;;;3.70;3.38;;;;;;;17.14;78.20;96555.72;5031792;28;20621;-58
2023/06/07 00:04:19;;;;;;;3.35;3.10;;;;;;;17.12;78.18;96552.38;5036062;28;20204;-57
2023/06/07 00:06:47;;;;;;;3.60;3.38;;;;;;;17.04;79.00;96557.84;5036576;28;20297;-58
2023/06/07 00:09:14;;;;;;;3.83;3.25;;;;;;;17.10;79.64;96554.44;5035578;28;20204;-58
2023/06/07 00:11:42;;;;;;;6.38;3.25;;;;;;;17.00;78.45;96561.91;5035179;28;20327;-57
2023/06/07 00:14:09;;;;;;;8.57;3.50;;;;;;;17.03;78.64;96558.84;5035317;28;20204;-58
2023/06/07 00:16:35;;;;;;;3.50;3.20;;;;;;;17.06;78.32;96559.31;5035103;28;20218;-57
2023/06/07 00:19:03;;;;;;;3.30;3.10;;;;;;;17.01;78.80;96550.19;5030518;28;20208;-58
2023/06/07 00:21:30;;;;;;;3.28;2.97;;;;;;;16.99;79.38;96546.88;5032094;28;20207;-58
2023/06/07 00:23:57;;;;;;;3.47;3.17;;;;;;;16.97;79.24;96549.72;5035689;28;20204;-57
2023/06/07 00:26:25;;;;;;;3.35;3.05;;;;;;;16.92;80.08;96546.78;5035504;28;20243;-57
2023/06/07 00:28:52;;;;;;;3.47;3.17;;;;;;;16.93;80.52;96549.25;5032491;28;20214;-58
2023/06/07 00:31:19;;;;;;;3.65;3.38;;;;;;;16.92;81.48;96547.63;5030541;28;20582;-58
2023/06/07 00:33:45;;;;;;;3.55;3.25;;;;;;;16.82;81.99;96541.75;5034618;28;20553;-57
2023/06/07 00:36:12;;;;;;;3.47;3.17;;;;;;;16.96;80.54;96548.09;5017473;28;20204;-57
2023/06/07 00:38:38;;;;;;;3.42;3.22;;;;;;;16.86;80.77;96543.00;5034178;28;20219;-57
2023/06/07 00:41:06;;;;;;;3.60;3.30;;;;;;;16.84;81.00;96545.03;5032717;28;20208;-58
2023/06/07 00:43:32;;;;;;;3.13;2.92;;;;;;;16.80;81.22;96541.06;5031665;28;20566;-57
2023/06/07 00:46:00;;;;;;;3.35;3.15;;;;;;;16.80;81.02;96546.41;5034763;28;20207;-57
2023/06/07 00:48:27;;;;;;;5.20;3.20;;;;;;;16.74;81.18;96539.16;5031192;28;20212;-58
2023/06/07 00:50:55;;;;;;;3.75;3.45;;;;;;;16.56;79.76;96544.00;5034711;28;20204;-57
2023/06/07 00:53:22;;;;;;;3.80;3.50;;;;;;;16.44;81.13;96538.25;5035002;28;20212;-57
2023/06/07 00:55:48;;;;;;;3.35;3.15;;;;;;;16.44;81.76;96537.41;5034747;28;20208;-57
2023/06/07 00:58:16;;;;;;;3.45;3.25;;;;;;;16.34;83.53;96551.03;5034314;28;20207;-56
2023/06/07 01:00:43;;;;;;;3.47;3.10;;;;;;;16.44;82.88;96546.25;5034181;28;20219;-58
2023/06/07 01:03:09;;;;;;;3.47;3.17;;;;;;;16.44;83.99;96546.25;5034946;28;20208;-58
2023/06/07 01:05:36;;;;;;;3.38;3.17;;;;;;;16.42;83.49;96542.13;5034565;28;20204;-57
2023/06/07 01:08:03;;;;;;;4.28;3.30;;;;;;;16.42;83.57;96544.78;5034682;28;20227;-57
2023/06/07 01:10:32;;;;;;;3.53;3.22;;;;;;;16.34;84.39;96548.34;5024185;28;20293;-57
2023/06/07 01:12:59;;;;;;;3.53;3.00;;;;;;;16.30;84.96;96546.22;5034270;28;20695;-56
2023/06/07 01:15:27;;;;;;;3.35;3.05;;;;;;;16.25;85.22;96545.94;5034148;28;20207;-58
2023/06/07 01:17:54;;;;;;;3.17;2.97;;;;;;;16.25;85.29;96545.94;5033178;28;20199;-58
2023/06/07 01:20:23;;;;;;;3.42;3.20;;;;;;;16.17;87.30;96549.50;5026094;28;20195;-57
2023/06/07 01:22:51;;;;;;;4.13;3.42;;;;;;;16.12;86.65;96549.22;5021912;28;20200;-57
2023/06/07 01:25:21;;;;;;;3.25;3.05;;;;;;;16.17;85.89;96541.50;5022730;28;20544;-57
2023/06/07 01:27:50;;;;;;;3.75;3.10;;;;;;;16.16;84.99;96550.50;5033019;28;20583;-58
2023/06/07 01:30:16;;;;;;;3.40;3.13;;;;;;;16.07;86.32;96542.75;5033849;28;20670;-57
2023/06/07 01:32:43;;;;;;;3.22;3.03;;;;;;;16.16;86.10;96544.34;5034233;28;20208;-57
2023/06/07 01:35:10;;;;;;;3.63;3.33;;;;;;;16.10;88.01;96551.25;5034460;28;20594;-57
2023/06/07 01:37:37;;;;;;;3.33;3.13;;;;;;;16.02;87.46;96543.28;5034119;28;20207;-58
2023/06/07 01:40:08;;;;;;;3.88;3.53;;;;;;;15.98;88.64;96542.00;5025213;28;20212;-58
2023/06/07 01:42:37;;;;;;;3.28;3.08;;;;;;;16.00;88.74;96539.16;5030925;28;20543;-57
2023/06/07 01:45:07;;;;;;;3.60;3.30;;;;;;;15.97;87.52;96537.69;5035853;28;20200;-57
2023/06/07 01:47:34;;;;;;;4.55;3.67;;;;;;;15.91;88.44;96539.22;5038127;28;20611;-57
2023/06/07 01:50:00;;;;;;;3.83;3.47;;;;;;;15.91;87.93;96547.22;5051177;28;20239;-57
2023/06/07 01:52:28;;;;;;;3.15;2.90;;;;;;;15.92;88.07;96551.56;5049394;28;20214;-58
2023/06/07 01:54:56;;;;;;;3.55;3.25;;;;;;;15.84;88.79;96542.75;5033577;28;20207;-57
2023/06/07 01:57:38;;;;;;;3.50;3.20;;;;;;;15.85;88.57;96539.94;5037689;28;20200;-57
2023/06/07 02:00:17;;;;;;;3.25;3.05;;;;;;;15.79;90.03;96548.66;5031459;28;20215;-58
2023/06/07 02:02:47;;;;;;;3.58;3.28;;;;;;;15.83;89.94;96541.97;5038491;28;20199;-57
2023/06/07 02:05:16;;;;;;;3.70;3.40;;;;;;;15.74;88.69;96545.69;5043201;28;20202;-57
2023/06/07 02:07:46;;;;;;;5.85;3.67;;;;;;;15.74;88.46;96534.19;5047041;28;20285;-58
2023/06/07 02:10:14;;;;;;;4.88;3.80;;;;;;;15.68;89.87;96550.91;5043275;28;20223;-57
2023/06/07 02:12:41;;;;;;;3.80;3.50;;;;;;;15.63;90.99;96547.91;5039476;28;20310;-57
2023/06/07 02:15:09;;;;;;;3.53;3.22;;;;;;;15.59;91.10;96547.44;5018116;28;20827;-57
2023/06/07 02:17:48;;;;;;;3.33;3.13;;;;;;;15.51;92.17;96542.19;5037703;28;20200;-57
2023/06/07 02:20:15;;;;;;;3.88;3.42;;;;;;;15.51;91.70;96550.16;5037534;28;20227;-57
2023/06/07 02:22:43;;;;;;;3.75;3.28;;;;;;;15.44;92.89;96538.53;5037763;28;20211;-57
2023/06/07 02:25:10;;;;;;;3.65;3.08;;;;;;;15.49;92.28;96544.16;5036062;28;20238;-57
2023/06/07 02:27:36;;;;;;;5.47;3.67;;;;;;;15.49;92.98;96541.50;5037423;28;20334;-57
2023/06/07 02:30:03;;;;;;;3.70;3.40;;;;;;;15.42;92.89;96540.50;5036508;28;20266;-57
2023/06/07 02:32:29;;;;;;;4.95;3.78;;;;;;;15.41;93.59;96550.34;5037197;28;20238;-57
2023/06/07 02:34:57;;;;;;;3.55;3.30;;;;;;;15.35;93.26;96544.88;5031050;28;20631;-57
2023/06/07 02:37:24;;;;;;;3.53;3.33;;;;;;;15.47;92.69;96543.50;5034250;28;20617;-58
2023/06/07 02:39:52;;;;;;;5.97;3.40;;;;;;;15.38;93.26;96544.53;5036458;28;20204;-57
2023/06/07 02:42:18;;;;;;;3.38;3.17;;;;;;;15.32;92.66;96545.25;5037055;28;20299;-58
2023/06/07 02:44:44;;;;;;;3.72;3.38;;;;;;;15.26;93.16;96540.63;5031012;28;20207;-58
2023/06/07 02:47:11;;;;;;;3.55;3.35;;;;;;;15.28;92.90;96546.59;5032777;28;20236;-58
2023/06/07 02:49:37;;;;;;;4.00;3.42;;;;;;;15.19;93.45;96537.00;5035135;28;20204;-58
2023/06/07 02:52:09;;;;;;;4.70;3.42;;;;;;;15.19;93.92;96544.97;5039559;28;20265;-58
2023/06/07 02:54:36;;;;;;;3.83;3.53;;;;;;;15.12;94.49;96544.00;5039538;28;20208;-57
2023/06/07 02:57:02;;;;;;;4.05;3.65;;;;;;;15.02;95.66;96548.72;5039129;28;20278;-58
2023/06/07 02:59:29;;;;;;;4.75;3.40;;;;;;;15.06;95.09;96548.19;5038683;28;20207;-58
2023/06/07 03:01:55;;;;;;;4.07;3.20;;;;;;;15.11;94.93;96545.00;5038085;28;20211;-58
2023/06/07 03:04:22;;;;;;;3.63;3.42;;;;;;;15.04;94.73;96542.22;5037934;28;20219;-58
2023/06/07 03:06:51;;;;;;;3.75;3.45;;;;;;;15.10;94.69;96546.00;5038227;28;20203;-57
2023/06/07 03:09:22;;;;;;;3.70;3.35;;;;;;;14.99;95.16;96554.38;5032302;28;20242;-58
2023/06/07 03:11:48;;;;;;;4.20;3.90;;;;;;;15.04;93.37;96560.03;5032309;28;20238;-57
2023/06/07 03:14:16;;;;;;;4.00;3.70;;;;;;;14.94;92.39;96550.41;5036844;28;20211;-58
2023/06/07 03:16:44;;;;;;;5.03;3.47;;;;;;;14.80;95.06;96551.13;5036082;28;20234;-56
2023/06/07 03:19:13;;;;;;;4.03;3.72;;;;;;;14.86;94.62;96557.59;5031115;28;20294;-58
2023/06/07 03:21:40;;;;;;;3.40;3.10;;;;;;;14.66;94.95;96554.50;5036499;28;20207;-57
2023/06/07 03:24:07;;;;;;;3.50;3.30;;;;;;;14.68;96.53;96551.66;5036656;28;20529;-58
2023/06/07 03:26:34;;;;;;;3.50;3.20;;;;;;;14.68;98.61;96559.63;5036354;28;20215;-56
2023/06/07 03:29:02;;;;;;;3.97;3.43;;;;;;;14.72;98.67;96559.13;5012051;28;20250;-57
2023/06/07 03:31:29;;;;;;;3.43;3.20;;;;;;;14.72;97.15;96561.78;5023097;28;20208;-57
2023/06/07 03:33:55;;;;;;;3.80;3.40;;;;;;;14.72;98.59;96555.63;5036498;28;20652;-57
2023/06/07 03:36:25;;;;;;;3.60;3.33;;;;;;;14.67;98.31;96566.78;5037258;28;20211;-57
2023/06/07 03:38:55;;;;;;;3.80;3.40;;;;;;;14.69;97.77;96564.81;5037314;28;20200;-57
2023/06/07 03:41:22;;;;;;;4.13;3.83;;;;;;;14.64;97.77;96567.13;5023769;28;20235;-57
2023/06/07 03:43:49;;;;;;;3.47;3.17;;;;;;;14.63;98.22;96568.13;5030734;28;20239;-57
2023/06/07 03:46:16;;;;;;;3.53;3.20;;;;;;;14.61;96.48;96562.16;5022551;28;20218;-57
2023/06/07 03:48:42;;;;;;;3.93;3.60;;;;;;;14.49;98.34;96570.66;5030955;28;20235;-56
2023/06/07 03:51:10;;;;;;;4.00;3.27;;;;;;;14.58;99.21;96577.63;5036139;28;20230;-57
2023/06/07 03:53:36;;;;;;;4.53;3.60;;;;;;;14.54;99.11;96577.13;5035949;28;20212;-57
2023/06/07 03:56:03;;;;;;;3.90;3.50;;;;;;;14.50;99.41;96578.47;5035884;28;20215;-56
2023/06/07 03:58:30;;;;;;;3.90;3.50;;;;;;;14.58;98.79;96580.28;5033859;28;20196;-56
2023/06/07 04:00:58;;;;;;;3.60;3.30;;;;;;;14.63;98.87;96576.09;5032100;28;20285;-57
2023/06/07 04:03:27;;;;;;;5.43;3.43;;;;;;;14.58;96.38;96570.47;5035525;28;20624;-57
2023/06/07 04:05:53;;;;;;;4.30;3.37;;;;;;;14.70;98.19;96574.44;5035802;28;20207;-57
2023/06/07 04:08:20;;;;;;;3.47;3.17;;;;;;;14.75;97.96;96580.09;5016593;28;20718;-57
2023/06/07 04:10:47;;;;;;;4.33;3.50;;;;;;;14.86;97.81;96579.72;5030224;28;20236;-58
2023/06/07 04:13:13;;;;;;;4.97;3.83;;;;;;;14.87;100.00;96577.91;5035158;28;20251;-57
2023/06/07 04:15:41;;;;;;;3.97;3.67;;;;;;;14.95;99.08;96581.34;5035291;28;20204;-57
2023/06/07 04:18:09;;;;;;;5.67;3.50;;;;;;;14.98;98.49;96580.19;5035640;28;20265;-56
2023/06/07 04:20:35;;;;;;;7.00;3.80;;;;;;;15.00;100.00;96577.34;5044245;28;20218;-58
2023/06/07 04:23:05;;;;;;;5.33;3.70;;;;;;;14.97;98.61;96580.34;5053748;28;20211;-57
2023/06/07 04:25:33;;;;;;;4.40;3.57;;;;;;;14.93;99.90;96582.53;5048665;28;20257;-57
2023/06/07 04:28:00;;;;;;;3.80;3.50;;;;;;;15.04;99.62;96576.00;5037422;28;20228;-59
2023/06/07 04:30:34;;;;;;;4.20;3.90;;;;;;;15.06;99.67;96576.66;5044076;28;20203;-58
2023/06/07 04:33:03;;;;;;;4.97;3.53;;;;;;;15.18;100.00;96577.94;5039072;28;20204;-57
2023/06/07 04:35:33;;;;;;;5.50;3.80;;;;;;;15.23;99.07;96576.41;5018024;28;20624;-57
2023/06/07 04:38:01;;;;;;;3.80;3.50;;;;;;;15.29;97.96;96572.25;5036268;28;20271;-57
2023/06/07 04:40:28;;;;;;;3.90;3.60;;;;;;;15.42;100.00;96578.66;5034166;28;20592;-57
2023/06/07 04:42:55;;;;;;;3.97;3.67;;;;;;;15.51;100.00;96570.66;5035902;28;20211;-57
2023/06/07 04:45:31;;;;;;;3.70;3.40;;;;;;;15.71;98.72;96585.19;5031570;28;20274;-58
2023/06/07 04:47:58;;;;;;;3.78;3.47;;;;;;;15.84;99.25;96586.25;5040427;28;20288;-58
2023/06/07 04:50:24;;;;;;;7.40;4.00;;;;;;;15.91;99.63;96589.06;5037161;28;20208;-57
2023/06/07 04:53:00;;;;;;;4.88;3.70;;;;;;;16.06;97.57;96583.78;5056687;28;20211;-57
2023/06/07 04:55:28;;;;;;;3.95;3.40;;;;;;;16.07;100.00;96580.94;5052704;28;20192;-57
2023/06/07 04:57:54;;;;;;;4.15;3.75;;;;;;;16.15;100.00;96588.06;5025090;28;20590;-57
2023/06/07 05:00:23;;;;;;;4.55;3.88;;;;;;;16.29;97.24;96581.94;5034361;28;20212;-58
2023/06/07 05:02:49;;;;;;;3.53;3.22;;;;;;;16.33;98.07;96577.91;5034549;28;20196;-58
2023/06/07 05:05:15;;;;;;;3.72;3.33;;;;;;;16.43;95.19;96578.47;5034317;28;20203;-57
2023/06/07 05:07:44;;;;;;;5.60;3.83;;;;;;;16.52;93.31;96582.72;5028392;28;20234;-58
2023/06/07 05:10:12;;;;;;;3.10;2.90;;;;;;;16.65;90.28;96574.13;5030739;28;20204;-57
2023/06/07 05:12:38;;;;;;;4.43;3.40;;;;;;;16.84;89.85;96566.41;5032590;28;20231;-57
2023/06/07 05:15:07;;;;;;;4.05;3.58;;;;;;;16.97;88.22;96571.09;5034332;28;20207;-57
2023/06/07 05:17:34;;;;;;;3.40;3.10;;;;;;;17.18;85.61;96579.19;5031678;28;20201;-57
2023/06/07 05:20:00;;;;;;;4.30;3.13;;;;;;;17.28;85.75;96571.75;5027202;28;20216;-58
2023/06/07 05:22:27;;;;;;;4.25;3.25;;;;;;;17.43;83.07;96571.69;5023383;28;20211;-57
2023/06/07 05:24:53;;;;;;;4.65;3.47;;;;;;;17.51;79.79;96566.25;5028115;28;20200;-58
2023/06/07 05:27:22;;;;;;;3.10;2.80;;;;;;;17.75;79.24;96573.97;5035138;28;20207;-57
2023/06/07 05:29:49;;;;;;;3.25;3.03;;;;;;;17.87;77.54;96568.94;5034444;28;20632;-58
2023/06/07 05:32:15;;;;;;;4.00;3.63;;;;;;;17.92;77.35;96570.03;5025112;28;20212;-58
2023/06/07 05:34:45;;;;;;;3.65;3.33;;;;;;;18.18;76.95;96571.28;5024947;28;20212;-58
2023/06/07 05:37:12;;;;;;;3.20;2.90;;;;;;;18.38;75.56;96577.69;5039014;28;20204;-59
2023/06/07 05:39:40;;;;;;;5.78;3.67;;;;;;;18.53;75.17;96570.41;5030350;28;20223;-57
2023/06/07 05:42:07;;;;;;;3.20;2.97;;;;;;;18.68;74.08;96573.81;5022326;28;20546;-58
2023/06/07 05:44:35;;;;;;;4.43;3.40;;;;;;;18.83;72.81;96577.22;5026670;28;20204;-57
2023/06/07 05:47:03;;;;;;;4.80;3.67;;;;;;;18.89;72.37;96572.94;5023364;28;20242;-58
2023/06/07 05:49:29;;;;;;;3.83;3.25;;;;;;;19.18;72.81;96574.53;5029099;28;20228;-57
2023/06/07 05:51:58;;;;;;;5.22;3.80;;;;;;;19.47;72.36;96574.31;5030777;28;20216;-58
2023/06/07 05:54:25;;;;;;;7.28;3.38;;;;;;;19.73;71.48;96573.59;5040452;28;20223;-57
2023/06/07 05:56:52;;;;;;;3.83;3.25;;;;;;;19.83;69.31;96574.03;5031758;28;20300;-56
2023/06/07 05:59:19;;;;;;;4.07;3.67;;;;;;;20.02;69.30;96575.09;5028680;28;20227;-65
2023/06/07 06:01:48;;;;;;;4.60;3.25;;;;;;;20.25;69.44;96578.25;5023594;28;20574;-60
2023/06/07 06:04:16;;;;;;;6.97;3.90;;;;;;;20.39;67.36;96581.78;5036083;28;20617;-58
2023/06/07 06:06:43;;;;;;;3.22;2.95;;;;;;;20.56;66.62;96583.03;5036076;28;20203;-58
2023/06/07 06:09:10;;;;;;;3.75;3.50;;;;;;;20.67;65.54;96582.41;5012053;28;20216;-58
2023/06/07 06:11:36;;;;;;;5.13;3.33;;;;;;;20.83;65.06;96587.38;5031235;28;20743;-59
2023/06/07 06:14:03;;;;;;;4.00;3.65;;;;;;;20.70;64.18;96592.75;5024210;28;20620;-58
2023/06/07 06:16:29;;;;;;;3.70;3.40;;;;;;;20.98;64.65;96592.50;5023436;28;20196;-58
2023/06/07 06:18:58;;;;;;;4.55;4.15;;;;;;;21.19;64.80;96584.22;5030082;28;20212;-59
2023/06/07 06:21:24;;;;;;;4.50;3.38;;;;;;;21.16;63.26;96592.72;5021922;28;20539;-58
2023/06/07 06:23:51;;;;;;;5.43;3.58;;;;;;;21.35;63.24;96597.25;5025225;28;20200;-57
2023/06/07 06:26:17;;;;;;;3.65;3.40;;;;;;;21.58;63.05;96592.19;5024796;28;20211;-60
2023/06/07 06:28:44;;;;;;;7.32;3.70;;;;;;;21.60;63.27;96590.13;5030961;28;20223;-58
2023/06/07 06:31:11;;;;;;;4.25;3.90;;;;;;;21.69;62.61;96588.84;5028121;28;20211;-58
2023/06/07 06:33:37;;;;;;;7.63;3.72;;;;;;;21.93;62.65;96589.97;5029230;28;20201;-58
2023/06/07 06:36:07;;;;;;;4.00;3.60;;;;;;;22.11;61.44;96591.97;5037291;28;20231;-58
2023/06/07 06:38:33;;;;;;;4.50;3.85;;;;;;;22.19;60.57;96594.41;5050341;28;20192;-59
2023/06/07 06:41:00;;;;;;;5.20;3.58;;;;;;;22.34;59.56;96584.16;5044934;28;20192;-59
2023/06/07 06:43:26;;;;;;;3.88;3.50;;;;;;;22.40;60.57;96585.97;5041934;28;20200;-59
2023/06/07 06:45:52;;;;;;;4.90;3.67;;;;;;;22.45;60.07;96586.16;5027468;28;20208;-58
2023/06/07 06:48:19;;;;;;;7.40;3.90;;;;;;;22.62;58.71;96589.13;5031463;28;20224;-58
2023/06/07 06:50:47;;;;;;;4.18;3.33;;;;;;;22.80;58.92;96591.91;5028339;28;20211;-58
2023/06/07 06:53:15;;;;;;;4.38;3.80;;;;;;;22.76;57.70;96591.53;5022689;28;20224;-57
2023/06/07 06:55:42;;;;;;;4.30;3.90;;;;;;;22.92;56.92;96589.34;5027046;28;20201;-58
2023/06/07 06:58:08;;;;;;;7.38;3.80;;;;;;;23.11;59.51;96589.13;5027441;28;20282;-58
2023/06/07 07:00:35;;;;;;;4.93;3.80;;;;;;;23.32;57.89;96590.56;5029292;28;20218;-58
2023/06/07 07:03:02;;;;;;;4.32;4.03;;;;;;;23.52;57.04;96596.63;5028335;28;20204;-59
2023/06/07 07:05:30;;;;;;;4.10;3.58;;;;;;;23.73;55.56;96589.94;5035002;28;20196;-58
2023/06/07 07:07:57;;;;;;;3.35;3.13;;;;;;;23.78;54.81;96596.28;5037574;28;20254;-58
2023/06/07 07:10:25;;;;;;;4.75;4.05;;;;;;;23.79;55.96;96586.31;5033687;28;20242;-58
2023/06/07 07:12:51;;;;;;;4.65;4.10;;;;;;;23.82;57.43;96593.97;5037255;28;20236;-58
2023/06/07 07:15:19;;;;;;;4.43;3.58;;;;;;;23.74;55.08;96592.38;5033385;28;20292;-58
2023/06/07 07:17:48;;;;;;;4.32;3.70;;;;;;;23.69;56.97;96592.25;5035459;28;20706;-58
2023/06/07 07:20:15;;;;;;;4.63;4.15;;;;;;;23.78;54.95;96588.19;5037068;28;20211;-58
2023/06/07 07:22:43;;;;;;;3.88;3.58;;;;;;;24.17;56.18;96592.28;5035173;28;20211;-58
2023/06/07 07:25:10;;;;;;;7.00;3.70;;;;;;;24.38;54.55;96592.81;5035718;28;20208;-58
2023/06/07 07:27:38;;;;;;;4.70;3.50;;;;;;;24.33;55.17;96587.28;5025202;28;20211;-59
2023/06/07 07:30:06;;;;;;;3.60;3.30;;;;;;;24.62;53.14;96586.41;5036012;28;20220;-58
2023/06/07 07:32:34;;;;;;;3.55;3.25;;;;;;;24.91;54.02;96590.94;5036471;28;20538;-58
2023/06/07 07:35:00;;;;;;;3.72;3.42;;;;;;;24.99;51.21;96587.06;5029082;28;20282;-57
2023/06/07 07:37:28;;;;;;;5.03;3.60;;;;;;;24.73;51.10;96585.59;5029954;28;20211;-58
2023/06/07 07:39:54;;;;;;;5.10;3.80;;;;;;;25.07;51.21;96584.03;5033620;28;20204;-59
2023/06/07 07:42:21;;;;;;;3.58;3.15;;;;;;;25.29;50.83;96581.53;5031186;28;20215;-59
2023/06/07 07:44:48;;;;;;;5.38;3.47;;;;;;;25.28;50.57;96583.41;5034000;28;20599;-58
2023/06/07 07:47:16;;;;;;;5.22;3.45;;;;;;;25.33;50.45;96574.59;5035337;28;20578;-58
2023/06/07 07:49:42;;;;;;;7.15;3.60;;;;;;;25.37;49.47;96573.88;5036969;28;20219;-58
2023/06/07 07:52:09;;;;;;;5.30;3.70;;;;;;;25.49;47.28;96581.97;5035143;28;20204;-58
2023/06/07 07:54:35;;;;;;;3.72;3.30;;;;;;;25.39;47.21;96577.16;5031834;28;20211;-58
2023/06/07 07:57:02;;;;;;;3.53;2.97;;;;;;;25.10;47.57;96581.66;5033201;28;20295;-59
2023/06/07 07:59:28;;;;;;;3.80;3.10;;;;;;;25.83;48.87;96582.97;5034097;28;20224;-58
2023/06/07 08:01:56;;;;;;;5.50;3.50;;;;;;;25.87;46.56;96581.44;5034195;28;20212;-57
2023/06/07 08:04:23;;;;;;;5.93;3.60;;;;;;;25.29;47.31;96587.78;5035536;28;20214;-60
2023/06/07 08:06:49;;;;;;;4.70;3.20;;;;;;;25.64;48.07;96575.03;5035683;28;20254;-58
2023/06/07 08:09:16;;;;;;;3.42;3.20;;;;;;;26.04;47.17;96587.75;5035917;28;20541;-58
2023/06/07 08:11:42;;;;;;;8.32;3.70;;;;;;;26.02;48.52;96581.75;5006857;28;20234;-58
2023/06/07 08:14:09;;;;;;;4.10;3.58;;;;;;;25.89;46.39;96576.63;5035582;28;20208;-58
2023/06/07 08:16:35;;;;;;;4.47;3.17;;;;;;;26.12;46.53;96574.63;5034925;28;20253;-58
2023/06/07 08:19:06;;;;;;;4.15;3.40;;;;;;;26.13;47.17;96570.03;5035177;28;20203;-57
2023/06/07 08:21:34;;;;;;;3.35;3.03;;;;;;;26.20;47.75;96571.56;5032650;28;20212;-58
2023/06/07 08:24:00;;;;;;;3.80;3.40;;;;;;;26.23;45.39;96572.97;5024193;28;20597;-58
2023/06/07 08:26:30;;;;;;;4.60;3.00;;;;;;;26.65;44.21;96571.53;5025340;28;20209;-57
2023/06/07 08:28:56;;;;;;;3.17;2.97;;;;;;;26.80;45.19;96573.69;5025887;28;20668;-58
2023/06/07 08:31:27;;;;;;;3.42;3.13;;;;;;;27.02;44.01;96568.38;5031397;28;20283;-58
2023/06/07 08:33:53;;;;;;;4.20;3.70;;;;;;;26.98;43.04;96564.50;5033791;28;20212;-59
2023/06/07 08:36:21;;;;;;;3.60;3.30;;;;;;;27.30;45.54;96562.81;5032123;28;20269;-58
2023/06/07 08:38:47;;;;;;;4.03;3.30;;;;;;;27.20;43.28;96565.38;5035298;28;20547;-58
2023/06/07 08:41:14;;;;;;;5.00;3.80;;;;;;;27.03;41.28;96568.09;5021796;28;20219;-57
2023/06/07 08:43:41;;;;;;;7.57;3.40;;;;;;;27.02;42.53;96571.91;5036576;28;20295;-58
2023/06/07 08:46:07;;;;;;;3.75;3.35;;;;;;;26.87;42.44;96568.13;5022874;28;20698;-58
2023/06/07 08:48:39;;;;;;;4.60;4.15;;;;;;;27.20;43.72;96562.69;5035325;28;20218;-57
2023/06/07 08:51:09;;;;;;;4.18;3.80;;;;;;;26.98;41.67;96561.78;5035577;28;20258;-57
2023/06/07 08:53:41;;;;;;;3.60;3.30;;;;;;;26.87;41.64;96565.41;5025011;28;20207;-59
2023/06/07 08:56:08;;;;;;;5.63;3.63;;;;;;;27.05;41.00;96560.56;5043118;28;20208;-57
2023/06/07 08:58:34;;;;;;;3.55;3.35;;;;;;;27.33;40.80;96567.75;5045123;28;20208;-58
2023/06/07 09:01:01;;;;;;;4.15;3.50;;;;;;;27.04;40.54;96568.94;5046204;28;20207;-58
2023/06/07 09:03:27;;;;;;;5.20;3.40;;;;;;;26.96;41.28;96561.22;5037232;28;20212;-58
2023/06/07 09:05:55;;;;;;;4.13;3.40;;;;;;;27.34;41.63;96568.56;5038153;28;20545;-58
2023/06/07 09:08:22;;;;;;;3.30;3.00;;;;;;;27.54;44.37;96569.69;5035159;28;20199;-59
2023/06/07 09:10:52;;;;;;;5.95;3.63;;;;;;;27.51;42.17;96564.75;5036104;28;20223;-58
2023/06/07 09:13:20;;;;;;;4.47;3.05;;;;;;;27.84;41.54;96563.00;5035570;28;20313;-58
2023/06/07 09:15:48;;;;;;;4.80;4.00;;;;;;;27.57;38.99;96562.94;5038725;28;20235;-59
2023/06/07 09:18:15;;;;;;;5.63;3.50;;;;;;;27.12;42.19;96563.09;5044032;28;20216;-58
2023/06/07 09:20:41;;;;;;;3.67;3.38;;;;;;;27.43;42.25;96551.59;5043503;28;20199;-58
2023/06/07 09:23:11;;;;;;;4.28;3.58;;;;;;;27.47;40.83;96551.94;5036361;28;20208;-58
2023/06/07 09:25:38;;;;;;;3.72;3.28;;;;;;;27.78;41.54;96553.13;5032240;28;20203;-57
2023/06/07 09:28:09;;;;;;;3.92;3.60;;;;;;;27.78;40.14;96550.41;5033034;28;20228;-58
2023/06/07 09:30:36;;;;;;;5.50;3.88;;;;;;;28.04;40.17;96557.78;5030391;28;20230;-58
2023/06/07 09:33:03;;;;;;;6.95;3.80;;;;;;;27.63;38.98;96557.31;5034285;28;20200;-58
2023/06/07 09:35:29;;;;;;;4.10;3.80;;;;;;;27.53;39.63;96557.19;5033886;28;20210;-59
2023/06/07 09:37:57;;;;;;;3.40;3.10;;;;;;;27.90;40.12;96546.50;5034671;28;20239;-58
2023/06/07 09:40:24;;;;;;;4.40;3.50;;;;;;;27.68;42.26;96554.66;5024817;28;20204;-58
2023/06/07 09:42:57;;;;;;;3.97;3.55;;;;;;;27.77;40.22;96554.22;5027885;28;20219;-58
2023/06/07 09:45:26;;;;;;;4.15;3.50;;;;;;;27.79;39.56;96550.16;5034509;28;20238;-59
2023/06/07 09:48:02;;;;;;;3.88;3.53;;;;;;;27.85;41.30;96559.19;5026977;28;20682;-58
2023/06/07 09:50:29;;;;;;;3.63;3.30;;;;;;;27.87;40.46;96547.00;5026520;28;20226;-58
2023/06/07 09:52:58;;;;;;;5.55;3.45;;;;;;;27.97;43.31;96552.56;5021071;28;20214;-57
2023/06/07 09:55:28;;;;;;;3.00;2.65;;;;;;;28.21;42.73;96553.13;5029105;28;20299;-58
2023/06/07 09:57:55;;;;;;;3.30;3.10;;;;;;;28.08;40.61;96543.47;5035322;28;20298;-58
2023/06/07 10:00:22;;;;;;;4.55;3.90;;;;;;;28.30;40.00;96546.16;5031381;28;20209;-58
2023/06/07 10:02:55;;;;;;;3.97;3.63;;;;;;;28.07;38.71;96541.00;5049052;28;20211;-58
2023/06/07 10:05:24;;;;;;;5.13;3.50;;;;;;;27.99;39.78;96542.25;5051633;28;20206;-57
2023/06/07 10:07:53;;;;;;;4.03;3.40;;;;;;;27.94;40.84;96534.03;5047555;28;20214;-58
2023/06/07 10:10:24;;;;;;;3.92;3.40;;;;;;;28.06;40.79;96536.59;5047258;28;20227;-58
2023/06/07 10:12:52;;;;;;;6.43;3.42;;;;;;;27.86;40.73;96533.66;5056892;28;20255;-57
2023/06/07 10:15:22;;;;;;;3.90;3.60;;;;;;;27.96;40.43;96531.88;5057498;28;20234;-58
2023/06/07 10:17:55;;;;;;;3.67;3.35;;;;;;;27.82;39.72;96527.91;5057609;28;20196;-57
2023/06/07 10:20:25;;;;;;;4.30;3.97;;;;;;;27.74;40.01;96535.72;5044692;28;20200;-59
2023/06/07 10:22:57;;;;;;;3.83;3.30;;;;;;;27.93;38.92;96531.56;5049830;28;20203;-59
2023/06/07 10:25:27;;;;;;;4.13;3.30;;;;;;;28.13;40.47;96529.09;5055871;28;20200;-60
2023/06/07 10:28:04;;;;;;;3.35;3.05;;;;;;;28.27;39.57;96530.31;5056381;28;20221;-58
2023/06/07 10:30:32;;;;;;;3.80;3.53;;;;;;;28.26;39.32;96531.41;5053769;28;20212;-60
2023/06/07 10:33:00;;;;;;;4.47;3.55;;;;;;;27.75;36.06;96531.91;5039008;28;20666;-58
2023/06/07 10:35:27;;;;;;;3.80;3.50;;;;;;;27.94;37.78;96531.31;5043487;28;20638;-58
2023/06/07 10:37:54;;;;;;;3.60;3.33;;;;;;;28.17;38.79;96530.22;5040544;28;20204;-60
2023/06/07 10:40:22;;;;;;;4.72;3.63;;;;;;;28.17;38.69;96525.63;5040280;28;20199;-58
2023/06/07 10:42:48;;;;;;;5.03;4.57;;;;;;;27.91;36.86;96520.97;5044336;28;20211;-58
2023/06/07 10:45:18;;;;;;;4.97;4.50;;;;;;;28.03;38.66;96526.25;5044870;28;20212;-59
2023/06/07 10:47:45;;;;;;;5.22;3.70;;;;;;;28.36;38.19;96520.63;5037544;28;20632;-59
2023/06/07 10:50:47;;;;;;;3.72;3.42;;;;;;;28.42;39.03;96516.03;5030314;28;20294;-59
2023/06/07 10:53:13;;;;;;;6.63;3.72;;;;;;;28.25;36.00;96516.19;5027772;28;20206;-58
2023/06/07 10:55:40;;;;;;;4.38;3.97;;;;;;;27.98;36.15;96516.16;5037788;28;20537;-58
2023/06/07 10:58:25;;;;;;;3.78;3.47;;;;;;;27.82;36.51;96518.94;5037590;28;20566;-57
2023/06/07 11:00:52;;;;;;;3.60;3.30;;;;;;;27.93;36.49;96518.81;5037018;28;20216;-57
2023/06/07 11:03:40;;;;;;;4.10;3.63;;;;;;;27.99;36.08;96516.94;5038018;28;20222;-57
2023/06/07 11:06:11;;;;;;;4.43;3.65;;;;;;;27.95;36.79;96515.84;5022469;28;20670;-57
2023/06/07 11:08:38;;;;;;;3.97;3.38;;;;;;;27.92;36.31;96510.91;5047187;28;20219;-59
2023/06/07 11:11:27;;;;;;;3.55;3.30;;;;;;;28.15;37.68;96510.63;5041352;28;20254;-58
2023/06/07 11:14:20;;;;;;;3.60;3.30;;;;;;;28.39;36.05;96492.91;5046909;28;20203;-58
2023/06/07 11:16:46;;;;;;;4.10;3.25;;;;;;;28.38;37.72;96499.41;4978686;28;20229;-58
2023/06/07 11:19:18;;;;;;;3.72;3.42;;;;;;;28.37;34.62;96496.97;5037676;28;20238;-58
2023/06/07 11:22:05;;;;;;;6.28;3.50;;;;;;;28.34;35.41;96490.13;5037185;28;20600;-58
2023/06/07 11:24:33;;;;;;;7.97;3.53;;;;;;;28.16;33.39;96494.06;5037042;28;20199;-58
2023/06/07 11:26:59;;;;;;;3.83;3.53;;;;;;;28.20;35.09;96486.19;5021029;28;20204;-58
2023/06/07 11:29:30;;;;;;;4.10;3.50;;;;;;;28.21;33.28;96482.41;5018489;28;20204;-58
2023/06/07 11:31:57;;;;;;;4.70;3.55;;;;;;;28.31;33.33;96482.50;5033382;28;20204;-57
2023/06/07 11:34:26;;;;;;;5.97;3.80;;;;;;;28.39;33.56;96482.03;5034613;28;20315;-57
2023/06/07 11:37:10;;;;;;;4.47;3.60;;;;;;;28.25;32.21;96482.72;5023217;28;20300;-58
2023/06/07 11:39:37;;;;;;;3.88;3.58;;;;;;;28.73;35.31;96473.63;5029966;28;20204;-58